Ty Woods — WDB5332 — position and weather

sailwx.info

Track history (hours):
 
Tides and Currents Weather Stations Pressure Air Temp Water Temp Dewpoint Dewpoint Depression Visibility Wind Speed Wind Dir Waves Ship Positions

Ty Woods

Owner: San Diego Towing & Marine Services,Inc., San Diego, CA. More information available from US FCC via Universal Licensing System and Coast Guard Vessel Documentation Center.

Last reported at 2017-May-25 01:55 UTC. Time now 2017-May-26 05:37 UTC.
Position N 33°46' W 118°13'.

; draft 2 m.

Type: Ship. MMSI: 366908460.

Date/timePositionNaut miles runAvg speedWind from/ knotsBaromVisibWave heightAir tempDewpointWater temp
2017-May-25 01:55N 33°46' W 118°13'0 0.3
2017-May-25 01:28N 33°46' W 118°13'4 7.7
2017-May-25 01:00N 33°44' W 118°10'0 0.0
2017-May-25 00:30N 33°44' W 118°10'0 0.0
2017-May-25 00:00N 33°44' W 118°10'3 5.8
2017-May-24 23:30N 33°45' W 118°13'1 1.2
2017-May-24 22:14N 33°46' W 118°13'0 0.0
2017-May-23 19:01N 33°46' W 118°13'0 6.8
2017-May-23 19:00N 33°46' W 118°13'2 4.3
2017-May-23 18:29N 33°44' W 118°12'0 0.0
2017-May-23 18:00N 33°44' W 118°12'2 4.1
2017-May-23 17:30N 33°46' W 118°13'1 0.9
2017-May-23 16:50N 33°46' W 118°13'0 0.0
2017-May-23 16:28N 33°46' W 118°13'0 0.0
2017-May-23 15:59N 33°46' W 118°13'  
2017-May-19 20:14N 33°46' W 118°13'1 3.9
2017-May-19 20:00N 33°45' W 118°13'7 8.6
2017-May-19 19:15N 33°40' W 118°08'2 3.1
2017-May-19 18:32N 33°38' W 118°07'0 2.3
2017-May-19 18:30N 33°38' W 118°07'1 1.6
2017-May-19 18:00N 33°38' W 118°08'1 2.7
2017-May-19 17:30N 33°39' W 118°08'2 4.0
2017-May-19 17:00N 33°41' W 118°10'611.3
2017-May-19 16:30N 33°46' W 118°13'1 1.1
2017-May-19 16:00N 33°46' W 118°13'0 0.0
2017-May-19 15:30N 33°46' W 118°13'0 0.0
2017-May-19 15:00N 33°46' W 118°13'3 0.1
2017-May-18 18:12N 33°44' W 118°10'  
Track history (hours):
 
Tides and Currents Weather Stations Pressure Air Temp Water Temp Dewpoint Dewpoint Depression Visibility Wind Speed Wind Dir Waves Ship Positions

Ty Woods

Owner: San Diego Towing & Marine Services,Inc., San Diego, CA. More information available from US FCC via Universal Licensing System and Coast Guard Vessel Documentation Center.

Last reported at 2017-May-25 01:55 UTC. Time now 2017-May-26 05:37 UTC.
Position N 33°46' W 118°13'.

; draft 2 m.

Type: Ship. MMSI: 366908460.

Date/timePositionNaut miles runAvg speedWind from/ knotsBaromVisibWave heightAir tempDewpointWater temp
2017-May-25 01:55N 33°46' W 118°13'0 0.3
2017-May-25 01:28N 33°46' W 118°13'4 7.7
2017-May-25 01:00N 33°44' W 118°10'0 0.0
2017-May-25 00:30N 33°44' W 118°10'0 0.0
2017-May-25 00:00N 33°44' W 118°10'3 5.8
2017-May-24 23:30N 33°45' W 118°13'1 1.2
2017-May-24 22:14N 33°46' W 118°13'0 0.0
2017-May-23 19:01N 33°46' W 118°13'0 6.8
2017-May-23 19:00N 33°46' W 118°13'2 4.3
2017-May-23 18:29N 33°44' W 118°12'0 0.0
2017-May-23 18:00N 33°44' W 118°12'2 4.1
2017-May-23 17:30N 33°46' W 118°13'1 0.9
2017-May-23 16:50N 33°46' W 118°13'0 0.0
2017-May-23 16:28N 33°46' W 118°13'0 0.0
2017-May-23 15:59N 33°46' W 118°13'  
2017-May-19 20:14N 33°46' W 118°13'1 3.9
2017-May-19 20:00N 33°45' W 118°13'7 8.6
2017-May-19 19:15N 33°40' W 118°08'2 3.1
2017-May-19 18:32N 33°38' W 118°07'0 2.3
2017-May-19 18:30N 33°38' W 118°07'1 1.6
2017-May-19 18:00N 33°38' W 118°08'1 2.7
2017-May-19 17:30N 33°39' W 118°08'2 4.0
2017-May-19 17:00N 33°41' W 118°10'611.3
2017-May-19 16:30N 33°46' W 118°13'1 1.1
2017-May-19 16:00N 33°46' W 118°13'0 0.0
2017-May-19 15:30N 33°46' W 118°13'0 0.0
2017-May-19 15:00N 33°46' W 118°13'3 0.1
2017-May-18 18:12N 33°44' W 118°10'  

Dump ship's entire track history